createdAt,value
2023-12-27T00:00:19.364Z,7.89
2023-12-27T00:00:51.150Z,7.82
2023-12-27T00:01:23.052Z,7.80
2023-12-27T00:01:54.748Z,7.85
2023-12-27T00:02:26.990Z,7.83
2023-12-27T00:03:01.146Z,7.85
2023-12-27T00:03:33.032Z,7.80
2023-12-27T00:04:05.321Z,7.82
2023-12-27T00:04:37.088Z,7.89
2023-12-27T00:05:09.019Z,7.82
2023-12-27T00:05:41.273Z,7.85
2023-12-27T00:06:13.003Z,7.80
2023-12-27T00:06:44.763Z,7.80
2023-12-27T00:07:16.519Z,7.76
2023-12-27T00:07:48.258Z,7.77
2023-12-27T00:08:19.930Z,7.79
2023-12-27T00:08:51.661Z,7.80
2023-12-27T00:09:24.048Z,7.77
2023-12-27T00:09:55.855Z,7.73
2023-12-27T00:10:27.604Z,7.70
2023-12-27T00:10:59.286Z,7.72
2023-12-27T00:11:31.050Z,7.67
2023-12-27T00:12:02.745Z,7.72
2023-12-27T00:12:34.510Z,7.67
2023-12-27T00:13:06.310Z,7.65
2023-12-27T00:13:38.067Z,7.66
2023-12-27T00:14:09.821Z,7.67
2023-12-27T00:14:41.591Z,7.67
2023-12-27T00:15:13.386Z,7.69
2023-12-27T00:15:46.712Z,7.75
2023-12-27T00:16:18.429Z,7.69
2023-12-27T00:16:50.071Z,7.72
2023-12-27T00:17:21.817Z,7.76
2023-12-27T00:17:53.601Z,7.76
2023-12-27T00:18:25.581Z,7.77
2023-12-27T00:18:57.823Z,7.77
2023-12-27T00:19:29.740Z,7.69
2023-12-27T00:20:01.540Z,7.70
2023-12-27T00:20:33.166Z,7.69
2023-12-27T00:21:05.474Z,7.67
2023-12-27T00:21:37.381Z,7.66
2023-12-27T00:22:09.128Z,7.72
2023-12-27T00:22:41.931Z,7.72
2023-12-27T00:23:13.753Z,7.70
2023-12-27T00:23:45.631Z,7.70
2023-12-27T00:24:17.371Z,7.70
2023-12-27T00:24:49.078Z,7.66
2023-12-27T00:25:20.818Z,7.70
2023-12-27T00:25:52.482Z,7.70
2023-12-27T00:26:24.200Z,7.76
2023-12-27T00:26:55.834Z,7.70
2023-12-27T00:27:27.498Z,7.72
2023-12-27T00:27:59.601Z,7.67
2023-12-27T00:28:31.371Z,7.63
2023-12-27T00:29:04.379Z,7.65
2023-12-27T00:29:36.216Z,7.63
2023-12-27T00:30:08.469Z,7.59
2023-12-27T00:30:40.406Z,7.66
2023-12-27T00:31:12.427Z,7.69
2023-12-27T00:31:44.145Z,7.69
2023-12-27T00:32:16.540Z,7.72
2023-12-27T00:32:48.224Z,7.69
2023-12-27T00:33:20.465Z,7.69
2023-12-27T00:33:52.443Z,7.69
2023-12-27T00:34:24.376Z,7.73
2023-12-27T00:34:56.080Z,7.75
2023-12-27T00:35:27.776Z,7.70
2023-12-27T00:35:59.804Z,7.69
2023-12-27T00:36:32.187Z,7.67
2023-12-27T00:37:04.284Z,7.66
2023-12-27T00:37:36.044Z,7.67
2023-12-27T00:38:08.321Z,7.63
2023-12-27T00:38:40.104Z,7.65
2023-12-27T00:39:12.549Z,7.66
2023-12-27T00:39:45.920Z,7.65
2023-12-27T00:40:17.554Z,7.62
2023-12-27T00:40:49.245Z,7.58
2023-12-27T00:41:20.882Z,7.62
2023-12-27T00:41:52.996Z,7.62
2023-12-27T00:42:24.796Z,7.55
2023-12-27T00:42:56.620Z,7.58
2023-12-27T00:43:28.529Z,7.61
2023-12-27T00:44:00.300Z,7.63
2023-12-27T00:44:32.107Z,7.66
2023-12-27T00:45:03.922Z,7.66
2023-12-27T00:45:35.649Z,7.69
2023-12-27T00:46:07.525Z,7.67
2023-12-27T00:46:39.435Z,7.67
2023-12-27T00:47:11.196Z,7.73
2023-12-27T00:47:47.208Z,7.69
2023-12-27T00:48:19.019Z,7.69
2023-12-27T00:48:50.999Z,7.70
2023-12-27T00:49:23.447Z,7.69
2023-12-27T00:49:55.245Z,7.70
2023-12-27T00:50:27.113Z,7.76
2023-12-27T00:51:00.732Z,7.73
2023-12-27T00:52:04.498Z,7.72
2023-12-27T00:52:36.241Z,7.75
2023-12-27T00:53:08.250Z,7.70
2023-12-27T00:53:39.899Z,7.69
2023-12-27T00:54:11.906Z,7.72
2023-12-27T00:54:43.610Z,7.66
2023-12-27T00:55:15.438Z,7.66
2023-12-27T00:55:47.098Z,7.66
2023-12-27T00:56:18.802Z,7.66
2023-12-27T00:56:50.861Z,7.67
2023-12-27T00:57:22.530Z,7.66
2023-12-27T00:57:54.434Z,7.65
2023-12-27T00:58:26.409Z,7.62
2023-12-27T00:58:58.486Z,7.66
2023-12-27T00:59:30.202Z,7.63
2023-12-27T01:00:01.904Z,7.67
2023-12-27T01:00:33.660Z,7.63
2023-12-27T01:01:05.455Z,7.66
2023-12-27T01:01:37.137Z,7.67
2023-12-27T01:02:09.659Z,7.63
2023-12-27T01:02:42.294Z,7.61
2023-12-27T01:03:14.053Z,7.61
2023-12-27T01:03:45.860Z,7.63
2023-12-27T01:04:17.717Z,7.63
2023-12-27T01:04:49.513Z,7.62
2023-12-27T01:05:21.237Z,7.62
2023-12-27T01:05:52.910Z,7.61
2023-12-27T01:06:24.805Z,7.65
2023-12-27T01:06:56.572Z,7.65
2023-12-27T01:07:28.377Z,7.63
2023-12-27T01:08:00.581Z,7.70
2023-12-27T01:08:32.362Z,7.70
2023-12-27T01:09:04.688Z,7.66
2023-12-27T01:09:36.699Z,7.69
2023-12-27T01:10:08.884Z,7.69
2023-12-27T01:10:40.523Z,7.72
2023-12-27T01:11:12.193Z,7.73
2023-12-27T01:11:43.867Z,7.76
2023-12-27T01:12:15.694Z,7.72
2023-12-27T01:12:47.500Z,7.70
2023-12-27T01:13:19.205Z,7.72
2023-12-27T01:13:50.848Z,7.69
2023-12-27T01:14:22.518Z,7.75
2023-12-27T01:14:54.147Z,7.75
2023-12-27T01:15:25.855Z,7.83
2023-12-27T01:16:00.424Z,7.87
2023-12-27T01:16:32.080Z,7.82
2023-12-27T01:17:03.929Z,7.80
2023-12-27T01:17:35.661Z,7.82
2023-12-27T01:18:07.472Z,7.80
2023-12-27T01:18:42.105Z,7.79
2023-12-27T01:19:14.100Z,7.85
2023-12-27T01:19:45.994Z,7.90
2023-12-27T01:20:17.755Z,7.93
2023-12-27T01:20:49.397Z,7.89
2023-12-27T01:21:21.082Z,7.97
2023-12-27T01:21:52.815Z,8.04
2023-12-27T01:22:24.662Z,8.03
2023-12-27T01:22:56.355Z,7.98
2023-12-27T01:23:28.667Z,8.01
2023-12-27T01:24:00.503Z,8.07
2023-12-27T01:24:32.341Z,8.03
2023-12-27T01:25:04.516Z,8.03
2023-12-27T01:25:36.276Z,8.00
2023-12-27T01:26:08.467Z,7.97
2023-12-27T01:26:40.128Z,7.96
2023-12-27T01:27:11.849Z,7.98
2023-12-27T01:27:46.079Z,7.98
2023-12-27T01:28:17.895Z,7.98
2023-12-27T01:28:49.970Z,8.00
2023-12-27T01:29:21.596Z,8.04
2023-12-27T01:29:53.473Z,8.04
2023-12-27T01:30:25.301Z,8.01
2023-12-27T01:30:57.186Z,8.06
2023-12-27T01:31:28.909Z,8.04
2023-12-27T01:32:00.612Z,8.01
2023-12-27T01:32:32.377Z,7.96
2023-12-27T01:33:04.580Z,7.93
2023-12-27T01:33:36.866Z,7.89
2023-12-27T01:34:12.969Z,7.86
2023-12-27T01:34:51.389Z,7.86
2023-12-27T01:35:23.608Z,7.91
2023-12-27T01:35:55.932Z,7.93
2023-12-27T01:36:30.530Z,7.90
2023-12-27T01:37:02.208Z,7.83
2023-12-27T01:37:34.014Z,7.85
2023-12-27T01:38:05.938Z,7.83
2023-12-27T01:38:37.636Z,7.85
2023-12-27T01:39:09.582Z,7.82
2023-12-27T01:39:41.421Z,7.79
2023-12-27T01:40:13.306Z,7.79
2023-12-27T01:40:49.513Z,7.75
2023-12-27T01:41:21.271Z,7.70
2023-12-27T01:41:53.067Z,7.70
2023-12-27T01:42:24.995Z,7.72
2023-12-27T01:42:57.076Z,7.70
2023-12-27T01:43:28.847Z,7.67
2023-12-27T01:44:00.513Z,7.67
2023-12-27T01:44:34.718Z,7.69
2023-12-27T01:45:07.610Z,7.73
2023-12-27T01:45:39.441Z,7.70
2023-12-27T01:46:12.096Z,7.75
2023-12-27T01:46:43.802Z,7.76
2023-12-27T01:47:15.687Z,7.75
2023-12-27T01:47:48.524Z,7.73
2023-12-27T01:48:23.725Z,7.73
2023-12-27T01:48:56.038Z,7.72
2023-12-27T01:49:28.353Z,7.73
2023-12-27T01:50:00.740Z,7.73
2023-12-27T01:50:34.679Z,7.69
2023-12-27T01:51:06.599Z,7.72
2023-12-27T01:51:38.602Z,7.66
2023-12-27T01:52:11.496Z,7.59
2023-12-27T01:52:44.171Z,7.59
2023-12-27T01:53:18.202Z,7.58
2023-12-27T01:53:50.710Z,7.62
2023-12-27T01:54:22.885Z,7.65
2023-12-27T01:54:54.676Z,7.63
2023-12-27T01:55:26.467Z,7.62
2023-12-27T01:55:58.196Z,7.62
2023-12-27T01:56:30.395Z,7.66
2023-12-27T01:57:02.885Z,7.61
2023-12-27T01:57:34.674Z,7.63
2023-12-27T01:58:09.570Z,7.62
2023-12-27T01:58:41.300Z,7.61
2023-12-27T01:59:14.153Z,7.65
2023-12-27T01:59:47.063Z,7.66
2023-12-27T02:00:18.959Z,7.67
2023-12-27T02:00:51.334Z,7.65
2023-12-27T02:01:23.184Z,7.69
2023-12-27T02:01:55.064Z,7.65
2023-12-27T02:02:26.693Z,7.70
2023-12-27T02:02:58.601Z,7.69
2023-12-27T02:03:30.565Z,7.73
2023-12-27T02:04:02.427Z,7.69
2023-12-27T02:04:34.418Z,7.70
2023-12-27T02:05:07.370Z,7.65
2023-12-27T02:05:40.980Z,7.66
2023-12-27T02:06:13.308Z,7.69
2023-12-27T02:06:45.540Z,7.67
2023-12-27T02:07:24.777Z,7.69
2023-12-27T02:08:03.359Z,7.69
2023-12-27T02:08:35.075Z,7.76
2023-12-27T02:09:07.409Z,7.75
2023-12-27T02:09:39.910Z,7.82
2023-12-27T02:10:12.045Z,7.76
2023-12-27T02:10:47.053Z,7.79
2023-12-27T02:11:18.726Z,7.76
2023-12-27T02:11:50.355Z,7.75
2023-12-27T02:12:30.584Z,7.70
2023-12-27T02:13:06.313Z,7.69
2023-12-27T02:13:41.490Z,7.67
2023-12-27T02:14:13.165Z,7.62
2023-12-27T02:14:44.929Z,7.66
2023-12-27T02:15:16.641Z,7.66
2023-12-27T02:15:48.351Z,7.62
2023-12-27T02:16:22.491Z,7.59
2023-12-27T02:16:54.235Z,7.55
2023-12-27T02:17:29.853Z,7.59
2023-12-27T02:18:04.893Z,7.56
2023-12-27T02:18:37.328Z,7.55
2023-12-27T02:19:17.655Z,7.55
2023-12-27T02:19:49.823Z,7.51
2023-12-27T02:20:21.572Z,7.51
2023-12-27T02:20:56.554Z,7.46
2023-12-27T02:21:29.159Z,7.52
2023-12-27T02:22:01.527Z,7.49
2023-12-27T02:22:35.933Z,7.52
2023-12-27T02:23:11.593Z,7.55
2023-12-27T02:23:49.342Z,7.51
2023-12-27T02:24:23.023Z,7.49
2023-12-27T02:24:55.520Z,7.48
2023-12-27T02:25:28.320Z,7.46
2023-12-27T02:26:01.194Z,7.42
2023-12-27T02:26:33.422Z,7.41
2023-12-27T02:27:05.241Z,7.42
2023-12-27T02:27:36.991Z,7.44
2023-12-27T02:28:08.798Z,7.38
2023-12-27T02:28:40.521Z,7.38
2023-12-27T02:29:12.763Z,7.44
2023-12-27T02:29:44.542Z,7.46
2023-12-27T02:30:23.875Z,7.42
2023-12-27T02:30:56.264Z,7.41
2023-12-27T02:31:28.092Z,7.35
2023-12-27T02:31:59.789Z,7.34
2023-12-27T02:32:32.139Z,7.24
2023-12-27T02:33:04.507Z,7.22
2023-12-27T02:33:36.748Z,7.27
2023-12-27T02:34:08.701Z,7.31
2023-12-27T02:34:41.029Z,7.31
2023-12-27T02:35:13.247Z,7.24
2023-12-27T02:35:45.147Z,7.18
2023-12-27T02:36:16.820Z,7.21
2023-12-27T02:36:48.557Z,7.25
2023-12-27T02:37:20.185Z,7.22
2023-12-27T02:37:51.925Z,7.22
2023-12-27T02:38:23.745Z,7.14
2023-12-27T02:38:55.527Z,7.12
2023-12-27T02:39:27.664Z,7.12
2023-12-27T02:40:00.491Z,7.11
2023-12-27T02:40:32.178Z,7.07
2023-12-27T02:41:04.001Z,7.09
2023-12-27T02:41:35.643Z,7.07
2023-12-27T02:42:07.384Z,7.09
2023-12-27T02:42:39.852Z,7.03
2023-12-27T02:43:11.624Z,7.04
2023-12-27T02:43:43.248Z,7.07
2023-12-27T02:44:15.769Z,7.07
2023-12-27T02:44:47.420Z,7.05
2023-12-27T02:45:19.516Z,7.01
2023-12-27T02:45:51.360Z,7.00
2023-12-27T02:46:22.990Z,6.97
2023-12-27T02:46:54.867Z,6.97
2023-12-27T02:47:26.597Z,7.01
2023-12-27T02:47:58.602Z,7.00
2023-12-27T02:48:30.610Z,6.97
2023-12-27T02:49:02.418Z,6.97
2023-12-27T02:49:34.594Z,6.94
2023-12-27T02:50:07.041Z,6.97
2023-12-27T02:50:45.635Z,6.90
2023-12-27T02:51:17.425Z,6.88
2023-12-27T02:51:52.883Z,6.91
2023-12-27T02:52:24.556Z,6.96
2023-12-27T02:52:56.228Z,6.90
2023-12-27T02:53:28.078Z,6.86
2023-12-27T02:53:59.720Z,6.86
2023-12-27T02:54:31.535Z,6.87
2023-12-27T02:55:03.427Z,6.81
2023-12-27T02:55:35.185Z,6.76
2023-12-27T02:56:09.949Z,6.79
2023-12-27T02:56:41.600Z,6.75
2023-12-27T02:57:14.560Z,6.77
2023-12-27T02:57:46.245Z,6.83
2023-12-27T02:58:17.852Z,6.88
2023-12-27T02:58:49.557Z,6.91
2023-12-27T02:59:23.951Z,6.94
2023-12-27T02:59:56.210Z,6.91
2023-12-27T03:00:27.992Z,6.94
2023-12-27T03:00:59.822Z,6.93
2023-12-27T03:01:31.594Z,6.88
2023-12-27T03:02:03.323Z,6.87
2023-12-27T03:02:34.986Z,6.80
2023-12-27T03:03:06.754Z,6.79
2023-12-27T03:03:38.467Z,6.77
2023-12-27T03:04:10.146Z,6.77
2023-12-27T03:04:41.851Z,6.73
2023-12-27T03:05:13.890Z,6.76
2023-12-27T03:05:45.570Z,6.73
2023-12-27T03:06:17.252Z,6.73
2023-12-27T03:06:48.902Z,6.73
2023-12-27T03:07:20.736Z,6.75
2023-12-27T03:07:52.458Z,6.69
2023-12-27T03:08:24.080Z,6.70
2023-12-27T03:08:55.819Z,6.70
2023-12-27T03:09:27.658Z,6.70
2023-12-27T03:09:59.398Z,6.73
2023-12-27T03:10:31.383Z,6.72
2023-12-27T03:11:03.132Z,6.77
2023-12-27T03:11:34.814Z,6.86
2023-12-27T03:12:07.316Z,6.84
2023-12-27T03:12:39.111Z,6.84
2023-12-27T03:13:10.860Z,6.87
2023-12-27T03:13:42.565Z,6.87
2023-12-27T03:14:14.905Z,6.88
2023-12-27T03:14:46.550Z,6.84
2023-12-27T03:15:18.213Z,6.83
2023-12-27T03:15:49.857Z,6.86
2023-12-27T03:16:21.823Z,6.83
2023-12-27T03:16:53.560Z,6.83
2023-12-27T03:17:28.236Z,6.83
2023-12-27T03:18:00.255Z,6.81
2023-12-27T03:18:33.678Z,6.84
2023-12-27T03:19:05.623Z,6.84
2023-12-27T03:19:37.390Z,6.81
2023-12-27T03:20:09.857Z,6.81
2023-12-27T03:20:41.589Z,6.83
2023-12-27T03:21:13.325Z,6.86
2023-12-27T03:21:45.200Z,6.86
2023-12-27T03:22:16.885Z,6.88
2023-12-27T03:22:48.654Z,6.87
2023-12-27T03:23:20.273Z,6.88
2023-12-27T03:23:52.152Z,6.86
2023-12-27T03:24:23.877Z,6.86
2023-12-27T03:24:55.510Z,6.79
2023-12-27T03:25:27.221Z,6.77
2023-12-27T03:25:58.904Z,6.80
2023-12-27T03:26:32.710Z,6.83
2023-12-27T03:27:04.753Z,6.86
2023-12-27T03:27:36.479Z,6.84
2023-12-27T03:28:08.523Z,6.87
2023-12-27T03:28:40.238Z,6.87
2023-12-27T03:29:11.865Z,6.80
2023-12-27T03:29:43.545Z,6.83
2023-12-27T03:30:15.442Z,6.83
2023-12-27T03:30:47.217Z,6.79
2023-12-27T03:31:20.842Z,6.80
2023-12-27T03:31:52.505Z,6.75
2023-12-27T03:32:25.316Z,6.72
2023-12-27T03:32:57.100Z,6.69
2023-12-27T03:33:28.987Z,6.72
2023-12-27T03:34:00.796Z,6.75
2023-12-27T03:34:32.650Z,6.81
2023-12-27T03:35:04.675Z,6.83
2023-12-27T03:35:36.323Z,6.81
2023-12-27T03:36:08.221Z,6.76
2023-12-27T03:36:39.915Z,6.80
2023-12-27T03:37:11.633Z,6.79
2023-12-27T03:37:43.537Z,6.81
2023-12-27T03:38:15.154Z,6.80
2023-12-27T03:38:46.895Z,6.80
2023-12-27T03:39:18.606Z,6.80
2023-12-27T03:39:52.089Z,6.83
2023-12-27T03:40:24.001Z,6.84
2023-12-27T03:40:55.961Z,6.88
2023-12-27T03:41:28.018Z,6.93
2023-12-27T03:41:59.660Z,6.88
2023-12-27T03:42:31.398Z,6.90
2023-12-27T03:43:03.234Z,6.94
2023-12-27T03:43:34.839Z,6.97
2023-12-27T03:44:06.467Z,7.00
2023-12-27T03:44:38.146Z,6.98
2023-12-27T03:45:10.076Z,6.96
2023-12-27T03:45:42.033Z,6.97
2023-12-27T03:46:13.997Z,6.96
2023-12-27T03:46:45.660Z,6.96
2023-12-27T03:47:17.383Z,6.91
2023-12-27T03:47:49.104Z,6.94
2023-12-27T03:48:24.092Z,6.97
2023-12-27T03:48:59.024Z,6.97
2023-12-27T03:49:30.958Z,6.97
2023-12-27T03:50:03.959Z,6.97
2023-12-27T03:50:36.098Z,6.96
2023-12-27T03:51:07.959Z,6.97
2023-12-27T03:51:39.819Z,6.98
2023-12-27T03:52:11.486Z,6.94
2023-12-27T03:52:44.492Z,6.94
2023-12-27T03:53:16.195Z,6.93
2023-12-27T03:53:47.986Z,6.93
2023-12-27T03:54:19.656Z,6.87
2023-12-27T03:54:51.564Z,6.93
2023-12-27T03:55:26.488Z,6.91
2023-12-27T03:55:58.166Z,6.93
2023-12-27T03:56:29.874Z,6.90
2023-12-27T03:57:01.533Z,6.93
2023-12-27T03:57:33.201Z,6.96
2023-12-27T03:58:05.171Z,6.88
2023-12-27T03:58:36.814Z,6.84
2023-12-27T03:59:08.577Z,6.86
2023-12-27T03:59:41.317Z,6.86
2023-12-27T04:00:13.724Z,6.87
2023-12-27T04:00:45.509Z,6.86
2023-12-27T04:01:22.049Z,6.80
2023-12-27T04:01:53.806Z,6.81
2023-12-27T04:02:25.538Z,6.77
2023-12-27T04:02:57.271Z,6.81
2023-12-27T04:03:33.007Z,6.77
2023-12-27T04:04:05.279Z,6.79
2023-12-27T04:04:39.997Z,6.79
2023-12-27T04:05:12.035Z,6.73
2023-12-27T04:05:43.808Z,6.79
2023-12-27T04:06:19.471Z,6.77
2023-12-27T04:06:51.326Z,6.75
2023-12-27T04:07:23.042Z,6.73
2023-12-27T04:07:55.664Z,6.76
2023-12-27T04:08:27.453Z,6.76
2023-12-27T04:08:59.121Z,6.76
2023-12-27T04:09:30.907Z,6.73
2023-12-27T04:10:02.589Z,6.67
2023-12-27T04:10:34.306Z,6.66
2023-12-27T04:11:05.933Z,6.67
2023-12-27T04:11:45.130Z,6.67
2023-12-27T04:12:16.820Z,6.62
2023-12-27T04:12:48.497Z,6.59
2023-12-27T04:13:20.511Z,6.59
2023-12-27T04:13:52.162Z,6.60
2023-12-27T04:14:23.850Z,6.60
2023-12-27T04:14:55.670Z,6.57
2023-12-27T04:15:27.441Z,6.56
2023-12-27T04:15:59.131Z,6.50
2023-12-27T04:16:30.868Z,6.49
2023-12-27T04:17:02.481Z,6.49
2023-12-27T04:17:34.501Z,6.46
2023-12-27T04:18:08.850Z,6.49
2023-12-27T04:18:40.754Z,6.42
2023-12-27T04:19:12.647Z,6.47
2023-12-27T04:19:44.506Z,6.47
2023-12-27T04:20:16.303Z,6.46
2023-12-27T04:20:47.972Z,6.45
2023-12-27T04:21:21.543Z,6.46
2023-12-27T04:21:53.382Z,6.40
2023-12-27T04:22:25.090Z,6.39
2023-12-27T04:22:56.767Z,6.35
2023-12-27T04:23:28.461Z,6.36
2023-12-27T04:24:00.166Z,6.33
2023-12-27T04:24:34.207Z,6.36
2023-12-27T04:25:06.382Z,6.33
2023-12-27T04:25:38.170Z,6.30
2023-12-27T04:26:09.815Z,6.29
2023-12-27T04:26:41.804Z,6.28
2023-12-27T04:27:13.653Z,6.25
2023-12-27T04:27:45.320Z,6.26
2023-12-27T04:28:17.262Z,6.24
2023-12-27T04:28:48.911Z,6.24
2023-12-27T04:29:20.563Z,6.21
2023-12-27T04:29:52.264Z,6.18
2023-12-27T04:30:23.941Z,6.19
2023-12-27T04:30:55.689Z,6.19
2023-12-27T04:31:27.424Z,6.18
2023-12-27T04:31:59.089Z,6.17
2023-12-27T04:32:31.265Z,6.15
2023-12-27T04:33:03.185Z,6.21
2023-12-27T04:33:34.971Z,6.18
2023-12-27T04:34:07.633Z,6.14
2023-12-27T04:34:39.456Z,6.18
2023-12-27T04:35:11.205Z,6.19
2023-12-27T04:35:44.007Z,6.21
2023-12-27T04:36:15.660Z,6.18
2023-12-27T04:36:47.445Z,6.19
2023-12-27T04:37:19.133Z,6.18
2023-12-27T04:37:50.771Z,6.21
2023-12-27T04:38:22.446Z,6.24
2023-12-27T04:38:54.124Z,6.22
2023-12-27T04:39:25.828Z,6.18
2023-12-27T04:39:58.765Z,6.15
2023-12-27T04:40:30.522Z,6.17
2023-12-27T04:41:10.257Z,6.18
2023-12-27T04:41:41.885Z,6.15
2023-12-27T04:42:13.571Z,6.14
2023-12-27T04:42:45.200Z,6.15
2023-12-27T04:43:16.810Z,6.18
2023-12-27T04:43:48.454Z,6.17
2023-12-27T04:44:20.104Z,6.15
2023-12-27T04:44:52.222Z,6.18
2023-12-27T04:45:23.986Z,6.21
2023-12-27T04:45:55.754Z,6.14
2023-12-27T04:46:27.445Z,6.17
2023-12-27T04:46:59.070Z,6.19
2023-12-27T04:47:30.834Z,6.21
2023-12-27T04:48:03.021Z,6.21
2023-12-27T04:48:35.271Z,6.15
2023-12-27T04:49:07.544Z,6.17
2023-12-27T04:49:39.417Z,6.14
2023-12-27T04:50:13.403Z,6.09
2023-12-27T04:50:45.255Z,6.12
2023-12-27T04:51:17.100Z,6.08
2023-12-27T04:51:48.836Z,6.12
2023-12-27T04:52:20.731Z,6.09
2023-12-27T04:52:52.382Z,6.09
2023-12-27T04:53:24.065Z,6.08
2023-12-27T04:53:55.811Z,6.07
2023-12-27T04:54:27.499Z,6.05
2023-12-27T04:54:59.149Z,6.04
2023-12-27T04:55:30.874Z,6.02
2023-12-27T04:56:02.594Z,5.99
2023-12-27T04:56:34.402Z,6.04
2023-12-27T04:57:06.194Z,5.98
2023-12-27T04:57:38.393Z,5.97
2023-12-27T04:58:13.081Z,5.93
2023-12-27T04:58:44.732Z,5.94
2023-12-27T04:59:16.392Z,5.93
2023-12-27T04:59:48.156Z,5.90
2023-12-27T05:00:19.805Z,5.87
2023-12-27T05:00:51.670Z,5.84
2023-12-27T05:01:23.493Z,5.93
2023-12-27T05:01:55.167Z,5.90
2023-12-27T05:02:26.922Z,5.87
2023-12-27T05:02:58.795Z,5.90
2023-12-27T05:03:30.586Z,5.88
2023-12-27T05:04:02.588Z,5.87
2023-12-27T05:04:34.451Z,5.90
2023-12-27T05:05:06.201Z,5.93
2023-12-27T05:05:37.894Z,5.94
2023-12-27T05:06:10.014Z,5.93
2023-12-27T05:06:42.143Z,5.91
2023-12-27T05:07:13.811Z,5.87
2023-12-27T05:07:45.538Z,5.86
2023-12-27T05:08:17.202Z,5.83
2023-12-27T05:08:49.040Z,5.83
2023-12-27T05:09:20.716Z,5.81
2023-12-27T05:09:52.449Z,5.81
2023-12-27T05:10:24.107Z,5.86
2023-12-27T05:10:55.753Z,5.80
2023-12-27T05:11:27.865Z,5.80
2023-12-27T05:11:59.586Z,5.78
2023-12-27T05:12:31.315Z,5.77
2023-12-27T05:13:03.160Z,5.80
2023-12-27T05:13:37.497Z,5.81
2023-12-27T05:14:09.112Z,5.83
2023-12-27T05:14:40.816Z,5.84
2023-12-27T05:15:12.487Z,5.84
2023-12-27T05:15:44.348Z,5.81
2023-12-27T05:16:17.711Z,5.81
2023-12-27T05:16:49.415Z,5.78
2023-12-27T05:17:23.049Z,5.78
2023-12-27T05:17:54.934Z,5.80
2023-12-27T05:18:26.942Z,5.80
2023-12-27T05:18:58.667Z,5.80
2023-12-27T05:19:30.518Z,5.81
2023-12-27T05:20:05.842Z,5.80
2023-12-27T05:20:37.518Z,5.77
2023-12-27T05:21:11.924Z,5.83
2023-12-27T05:21:43.674Z,5.80
2023-12-27T05:22:15.349Z,5.78
2023-12-27T05:22:46.963Z,5.81
2023-12-27T05:23:18.574Z,5.86
2023-12-27T05:23:50.323Z,5.87
2023-12-27T05:24:22.064Z,5.90
2023-12-27T05:24:53.784Z,5.88
2023-12-27T05:25:27.287Z,5.90
2023-12-27T05:25:58.905Z,5.90
2023-12-27T05:26:30.609Z,5.88
2023-12-27T05:27:02.250Z,5.87
2023-12-27T05:27:34.124Z,5.90
2023-12-27T05:28:05.990Z,5.86
2023-12-27T05:28:37.665Z,5.87
2023-12-27T05:29:09.643Z,5.88
2023-12-27T05:29:41.406Z,5.87
2023-12-27T05:30:13.368Z,5.88
2023-12-27T05:30:45.170Z,5.90
2023-12-27T05:31:16.898Z,5.88
2023-12-27T05:31:48.574Z,5.94
2023-12-27T05:32:20.263Z,5.90
2023-12-27T05:32:52.078Z,5.94
2023-12-27T05:33:25.915Z,5.94
2023-12-27T05:34:00.543Z,5.93
2023-12-27T05:34:32.318Z,5.93
2023-12-27T05:35:04.424Z,5.93
2023-12-27T05:35:36.130Z,5.95
2023-12-27T05:36:07.960Z,5.95
2023-12-27T05:36:39.892Z,6.01
2023-12-27T05:37:11.609Z,6.01
2023-12-27T05:37:43.385Z,5.99
2023-12-27T05:38:14.988Z,6.01
2023-12-27T05:38:46.663Z,6.02
2023-12-27T05:39:18.331Z,5.95
2023-12-27T05:39:51.225Z,5.99
2023-12-27T05:40:22.879Z,6.02
2023-12-27T05:40:54.526Z,6.01
2023-12-27T05:41:28.004Z,6.01
2023-12-27T05:42:04.843Z,6.04
2023-12-27T05:42:36.829Z,6.02
2023-12-27T05:43:08.610Z,5.98
2023-12-27T05:43:40.382Z,6.01
2023-12-27T05:44:12.143Z,5.95
2023-12-27T05:44:43.835Z,5.98
2023-12-27T05:45:15.893Z,5.94
2023-12-27T05:45:47.595Z,5.94
2023-12-27T05:46:19.652Z,5.94
2023-12-27T05:46:51.381Z,5.95
2023-12-27T05:47:24.213Z,5.97
2023-12-27T05:47:56.094Z,5.93
2023-12-27T05:48:27.937Z,5.95
2023-12-27T05:48:59.712Z,5.98
2023-12-27T05:49:31.724Z,6.01
2023-12-27T05:50:03.782Z,5.98
2023-12-27T05:50:35.485Z,5.99
2023-12-27T05:51:07.175Z,5.94
2023-12-27T05:51:41.131Z,5.97
2023-12-27T05:52:12.841Z,5.95
2023-12-27T05:52:44.994Z,5.94
2023-12-27T05:53:16.639Z,5.90
2023-12-27T05:53:48.275Z,5.90
2023-12-27T05:54:19.957Z,5.88
2023-12-27T05:54:51.660Z,5.87
2023-12-27T05:55:24.089Z,5.86
2023-12-27T05:55:55.761Z,5.90
2023-12-27T05:56:27.510Z,5.87
2023-12-27T05:56:59.229Z,5.84
2023-12-27T05:57:30.967Z,5.81
2023-12-27T05:58:02.751Z,5.78
2023-12-27T05:58:34.426Z,5.74
2023-12-27T05:59:06.405Z,5.74
2023-12-27T05:59:38.106Z,5.74
2023-12-27T06:00:10.301Z,5.77
2023-12-27T06:00:42.203Z,5.77
2023-12-27T06:01:14.560Z,5.80
2023-12-27T06:01:47.908Z,5.74
2023-12-27T06:02:19.964Z,5.71
2023-12-27T06:02:51.919Z,5.73
2023-12-27T06:03:26.044Z,5.73
2023-12-27T06:03:57.861Z,5.73
2023-12-27T06:04:29.546Z,5.73
2023-12-27T06:05:01.776Z,5.66
2023-12-27T06:05:33.518Z,5.64
2023-12-27T06:06:06.106Z,5.66
2023-12-27T06:06:37.814Z,5.63
2023-12-27T06:07:09.661Z,5.64
2023-12-27T06:07:41.882Z,5.64
2023-12-27T06:08:13.569Z,5.68
2023-12-27T06:08:45.549Z,5.66
2023-12-27T06:09:18.434Z,5.60
2023-12-27T06:09:50.106Z,5.56
2023-12-27T06:10:21.825Z,5.56
2023-12-27T06:10:53.842Z,5.56
2023-12-27T06:11:25.471Z,5.56
2023-12-27T06:11:57.200Z,5.56
2023-12-27T06:12:30.892Z,5.57
2023-12-27T06:13:02.686Z,5.59
2023-12-27T06:13:34.498Z,5.59
2023-12-27T06:14:06.312Z,5.59
2023-12-27T06:14:37.970Z,5.57
2023-12-27T06:15:12.243Z,5.51
2023-12-27T06:15:44.312Z,5.54
2023-12-27T06:16:16.159Z,5.56
2023-12-27T06:16:47.817Z,5.56
2023-12-27T06:17:19.474Z,5.59
2023-12-27T06:17:51.353Z,5.54
2023-12-27T06:18:23.375Z,5.50
2023-12-27T06:18:55.941Z,5.57
2023-12-27T06:19:29.331Z,5.60
2023-12-27T06:20:01.041Z,5.57
2023-12-27T06:20:32.758Z,5.61
2023-12-27T06:21:04.990Z,5.57
2023-12-27T06:21:39.650Z,5.57
2023-12-27T06:22:11.354Z,5.59
2023-12-27T06:22:43.472Z,5.59
2023-12-27T06:23:15.183Z,5.61
2023-12-27T06:23:47.181Z,5.59
2023-12-27T06:24:18.903Z,5.59
2023-12-27T06:24:50.789Z,5.59
2023-12-27T06:25:22.436Z,5.54
2023-12-27T06:25:54.192Z,5.51
2023-12-27T06:26:26.064Z,5.53
2023-12-27T06:26:57.943Z,5.54
2023-12-27T06:27:29.731Z,5.51
2023-12-27T06:28:01.535Z,5.53
2023-12-27T06:28:33.826Z,5.49
2023-12-27T06:29:05.899Z,5.50
2023-12-27T06:29:37.577Z,5.50
2023-12-27T06:30:09.686Z,5.50
2023-12-27T06:30:41.550Z,5.51
2023-12-27T06:31:13.429Z,5.51
2023-12-27T06:31:45.434Z,5.50
2023-12-27T06:32:17.104Z,5.46
2023-12-27T06:32:48.810Z,5.49
2023-12-27T06:33:20.556Z,5.49
2023-12-27T06:33:53.226Z,5.50
2023-12-27T06:34:25.004Z,5.51
2023-12-27T06:34:56.728Z,5.49
2023-12-27T06:35:28.376Z,5.53
2023-12-27T06:36:00.016Z,5.56
2023-12-27T06:36:31.931Z,5.59
2023-12-27T06:37:03.848Z,5.54
2023-12-27T06:37:39.509Z,5.51
2023-12-27T06:38:11.822Z,5.49
2023-12-27T06:38:47.223Z,5.46
2023-12-27T06:39:18.992Z,5.40
2023-12-27T06:39:50.694Z,5.46
2023-12-27T06:40:22.354Z,5.44
2023-12-27T06:40:54.128Z,5.44
2023-12-27T06:41:25.876Z,5.43
2023-12-27T06:41:57.623Z,5.40
2023-12-27T06:42:29.401Z,5.39
2023-12-27T06:43:01.022Z,5.36
2023-12-27T06:43:35.613Z,5.35
2023-12-27T06:44:07.245Z,5.35
2023-12-27T06:44:39.010Z,5.36
2023-12-27T06:45:11.304Z,5.43
2023-12-27T06:45:42.990Z,5.40
2023-12-27T06:46:14.847Z,5.38
2023-12-27T06:46:46.464Z,5.39
2023-12-27T06:47:18.188Z,5.39
2023-12-27T06:47:50.708Z,5.40
2023-12-27T06:48:22.466Z,5.38
2023-12-27T06:48:54.229Z,5.40
2023-12-27T06:49:26.170Z,5.42
2023-12-27T06:49:58.078Z,5.43
2023-12-27T06:50:30.023Z,5.44
2023-12-27T06:51:04.492Z,5.47
2023-12-27T06:51:36.448Z,5.56
2023-12-27T06:52:08.317Z,5.59
2023-12-27T06:52:42.949Z,5.63
2023-12-27T06:53:14.576Z,5.64
2023-12-27T06:53:46.289Z,5.63
2023-12-27T06:54:18.059Z,5.64
2023-12-27T06:54:49.816Z,5.61
2023-12-27T06:55:21.678Z,5.67
2023-12-27T06:55:53.407Z,5.67
2023-12-27T06:56:25.141Z,5.66
2023-12-27T06:56:56.829Z,5.66
2023-12-27T06:57:28.845Z,5.68
2023-12-27T06:58:01.302Z,5.67
2023-12-27T06:58:32.962Z,5.67
2023-12-27T06:59:05.673Z,5.66
2023-12-27T06:59:37.359Z,5.63
2023-12-27T07:00:09.864Z,5.66
2023-12-27T07:00:42.645Z,5.64
2023-12-27T07:01:15.964Z,5.67
2023-12-27T07:01:47.625Z,5.66
2023-12-27T07:02:20.341Z,5.67
2023-12-27T07:02:52.062Z,5.68
2023-12-27T07:03:23.771Z,5.70
2023-12-27T07:03:55.608Z,5.67
2023-12-27T07:04:27.427Z,5.70
2023-12-27T07:04:59.245Z,5.73
2023-12-27T07:05:31.184Z,5.70
2023-12-27T07:06:06.206Z,5.66
2023-12-27T07:06:39.909Z,5.70
2023-12-27T07:07:11.866Z,5.73
2023-12-27T07:07:43.508Z,5.74
2023-12-27T07:08:15.157Z,5.80
2023-12-27T07:08:46.805Z,5.84
2023-12-27T07:09:21.399Z,5.84